Terminal Aerodrome Forecast
Issued by NWS

Home | Current Version | Previous Version | Text Only | Print | Product List | Glossary On
Versions: 1 2 3 4 5 6 7 8 9 10 11 12 13 14 15 16 17 18
000
FTUS45 KSLC 250530
TAFEVW
TAF
KEVW 250530Z 2506/2606 08007KT P6SM SKC
     FM250800 12006KT P6SM SKC
     FM251600 16009KT P6SM SKC
     FM251800 20011G18KT P6SM FEW070
     FM260300 VRB05KT P6SM SCT120=

USA.gov is the U.S. government's official web portal to all federal, state and local government web resources and services.